sensor_id;sensor_type;location;lat;lon;timestamp;temperature;humidity
33011;DHT22;19370;48.562;9.196;2022-11-11T00:01:08;6.30;99.90
33011;DHT22;19370;48.562;9.196;2022-11-11T00:03:34;6.20;99.90
33011;DHT22;19370;48.562;9.196;2022-11-11T00:06:02;6.10;99.90
33011;DHT22;19370;48.562;9.196;2022-11-11T00:08:28;6.00;99.90
33011;DHT22;19370;48.562;9.196;2022-11-11T00:11:02;5.90;99.90
33011;DHT22;19370;48.562;9.196;2022-11-11T00:13:29;5.90;99.90
33011;DHT22;19370;48.562;9.196;2022-11-11T00:15:55;5.90;99.90
33011;DHT22;19370;48.562;9.196;2022-11-11T00:18:21;5.90;99.90
33011;DHT22;19370;48.562;9.196;2022-11-11T00:21:12;5.80;99.90
33011;DHT22;19370;48.562;9.196;2022-11-11T00:23:56;5.70;99.90
33011;DHT22;19370;48.562;9.196;2022-11-11T00:26:41;5.60;99.90
33011;DHT22;19370;48.562;9.196;2022-11-11T00:29:07;5.50;99.90
33011;DHT22;19370;48.562;9.196;2022-11-11T00:31:34;5.50;99.90
33011;DHT22;19370;48.562;9.196;2022-11-11T00:34:00;5.50;99.90
33011;DHT22;19370;48.562;9.196;2022-11-11T00:36:26;5.60;99.90
33011;DHT22;19370;48.562;9.196;2022-11-11T00:38:52;5.50;99.90
33011;DHT22;19370;48.562;9.196;2022-11-11T00:41:23;5.60;99.90
33011;DHT22;19370;48.562;9.196;2022-11-11T00:43:51;5.60;99.90
33011;DHT22;19370;48.562;9.196;2022-11-11T00:46:17;5.60;99.90
33011;DHT22;19370;48.562;9.196;2022-11-11T00:49:01;5.60;99.90
33011;DHT22;19370;48.562;9.196;2022-11-11T00:51:45;5.60;99.90
33011;DHT22;19370;48.562;9.196;2022-11-11T00:54:11;5.60;99.90
33011;DHT22;19370;48.562;9.196;2022-11-11T00:56:37;5.60;99.90
33011;DHT22;19370;48.562;9.196;2022-11-11T00:59:04;5.50;99.90
33011;DHT22;19370;48.562;9.196;2022-11-11T01:01:32;5.50;99.90
33011;DHT22;19370;48.562;9.196;2022-11-11T01:03:58;5.40;99.90
33011;DHT22;19370;48.562;9.196;2022-11-11T01:06:25;5.30;99.90
33011;DHT22;19370;48.562;9.196;2022-11-11T01:08:51;5.10;99.90
33011;DHT22;19370;48.562;9.196;2022-11-11T01:11:20;5.20;99.90
33011;DHT22;19370;48.562;9.196;2022-11-11T01:13:46;5.20;99.90
33011;DHT22;19370;48.562;9.196;2022-11-11T01:16:21;5.20;99.90
33011;DHT22;19370;48.562;9.196;2022-11-11T01:18:48;5.20;99.90
33011;DHT22;19370;48.562;9.196;2022-11-11T01:21:22;5.20;99.90
33011;DHT22;19370;48.562;9.196;2022-11-11T01:23:51;5.10;99.90
33011;DHT22;19370;48.562;9.196;2022-11-11T01:26:26;5.10;99.90
33011;DHT22;19370;48.562;9.196;2022-11-11T01:28:54;5.20;99.90
33011;DHT22;19370;48.562;9.196;2022-11-11T01:31:22;5.20;99.90
33011;DHT22;19370;48.562;9.196;2022-11-11T01:33:49;5.10;99.90
33011;DHT22;19370;48.562;9.196;2022-11-11T01:36:20;5.10;99.90
33011;DHT22;19370;48.562;9.196;2022-11-11T01:38:51;5.20;99.90
33011;DHT22;19370;48.562;9.196;2022-11-11T01:41:20;5.20;99.90
33011;DHT22;19370;48.562;9.196;2022-11-11T01:47:04;5.20;99.90
33011;DHT22;19370;48.562;9.196;2022-11-11T02:00:23;5.20;99.90
33011;DHT22;19370;48.562;9.196;2022-11-11T02:02:53;5.10;99.90
33011;DHT22;19370;48.562;9.196;2022-11-11T02:05:21;5.20;99.90
33011;DHT22;19370;48.562;9.196;2022-11-11T02:08:15;5.20;99.90
33011;DHT22;19370;48.562;9.196;2022-11-11T02:11:01;5.30;99.90
33011;DHT22;19370;48.562;9.196;2022-11-11T02:13:29;5.30;99.90
33011;DHT22;19370;48.562;9.196;2022-11-11T02:16:13;5.20;99.90
33011;DHT22;19370;48.562;9.196;2022-11-11T02:18:41;5.20;99.90
33011;DHT22;19370;48.562;9.196;2022-11-11T02:21:08;5.30;99.90
33011;DHT22;19370;48.562;9.196;2022-11-11T02:23:43;5.30;99.90
33011;DHT22;19370;48.562;9.196;2022-11-11T02:26:12;5.20;99.90
33011;DHT22;19370;48.562;9.196;2022-11-11T02:28:40;5.10;99.90
33011;DHT22;19370;48.562;9.196;2022-11-11T02:31:07;5.10;99.90
33011;DHT22;19370;48.562;9.196;2022-11-11T02:33:34;5.10;99.90
33011;DHT22;19370;48.562;9.196;2022-11-11T02:36:00;5.10;99.90
33011;DHT22;19370;48.562;9.196;2022-11-11T02:38:28;5.10;99.90
33011;DHT22;19370;48.562;9.196;2022-11-11T02:40:54;5.20;99.90
33011;DHT22;19370;48.562;9.196;2022-11-11T02:43:40;5.00;99.90
33011;DHT22;19370;48.562;9.196;2022-11-11T02:46:06;5.10;99.90
33011;DHT22;19370;48.562;9.196;2022-11-11T02:48:32;5.00;99.90
33011;DHT22;19370;48.562;9.196;2022-11-11T02:50:58;5.10;99.90
33011;DHT22;19370;48.562;9.196;2022-11-11T02:53:24;5.10;99.90
33011;DHT22;19370;48.562;9.196;2022-11-11T02:55:50;5.00;99.90
33011;DHT22;19370;48.562;9.196;2022-11-11T02:58:15;4.90;99.90
33011;DHT22;19370;48.562;9.196;2022-11-11T03:00:42;5.00;99.90
33011;DHT22;19370;48.562;9.196;2022-11-11T03:03:09;4.90;99.90
33011;DHT22;19370;48.562;9.196;2022-11-11T03:05:35;4.80;99.90
33011;DHT22;19370;48.562;9.196;2022-11-11T03:08:01;4.80;99.90
33011;DHT22;19370;48.562;9.196;2022-11-11T03:10:27;4.70;99.90
33011;DHT22;19370;48.562;9.196;2022-11-11T03:12:55;4.60;99.90
33011;DHT22;19370;48.562;9.196;2022-11-11T03:15:21;4.70;99.90
33011;DHT22;19370;48.562;9.196;2022-11-11T03:17:46;4.60;99.90
33011;DHT22;19370;48.562;9.196;2022-11-11T03:20:17;4.80;99.90
33011;DHT22;19370;48.562;9.196;2022-11-11T03:23:13;4.80;99.90
33011;DHT22;19370;48.562;9.196;2022-11-11T03:25:47;4.90;99.90
33011;DHT22;19370;48.562;9.196;2022-11-11T03:28:15;4.90;99.90
33011;DHT22;19370;48.562;9.196;2022-11-11T03:30:46;4.80;99.90
33011;DHT22;19370;48.562;9.196;2022-11-11T03:33:13;4.80;99.90
33011;DHT22;19370;48.562;9.196;2022-11-11T03:35:39;4.70;99.90
33011;DHT22;19370;48.562;9.196;2022-11-11T03:38:06;4.90;99.90
33011;DHT22;19370;48.562;9.196;2022-11-11T03:40:55;4.70;99.90
33011;DHT22;19370;48.562;9.196;2022-11-11T03:43:23;4.70;99.90
33011;DHT22;19370;48.562;9.196;2022-11-11T03:45:51;4.90;99.90
33011;DHT22;19370;48.562;9.196;2022-11-11T03:48:17;5.10;99.90
33011;DHT22;19370;48.562;9.196;2022-11-11T03:50:43;5.00;99.90
33011;DHT22;19370;48.562;9.196;2022-11-11T03:53:09;5.00;99.90
33011;DHT22;19370;48.562;9.196;2022-11-11T03:55:35;4.90;99.90
33011;DHT22;19370;48.562;9.196;2022-11-11T03:58:01;4.90;99.90
33011;DHT22;19370;48.562;9.196;2022-11-11T04:00:27;5.00;99.90
33011;DHT22;19370;48.562;9.196;2022-11-11T04:03:14;4.90;99.90
33011;DHT22;19370;48.562;9.196;2022-11-11T04:05:59;4.90;99.90
33011;DHT22;19370;48.562;9.196;2022-11-11T04:08:44;4.90;99.90
33011;DHT22;19370;48.562;9.196;2022-11-11T04:11:45;4.90;99.90
33011;DHT22;19370;48.562;9.196;2022-11-11T04:14:13;4.90;99.90
33011;DHT22;19370;48.562;9.196;2022-11-11T04:16:58;4.90;99.90
33011;DHT22;19370;48.562;9.196;2022-11-11T04:19:23;4.80;99.90
33011;DHT22;19370;48.562;9.196;2022-11-11T04:22:08;4.90;99.90
33011;DHT22;19370;48.562;9.196;2022-11-11T04:24:34;4.80;99.90
33011;DHT22;19370;48.562;9.196;2022-11-11T04:27:19;4.80;99.90
33011;DHT22;19370;48.562;9.196;2022-11-11T04:29:46;4.70;99.90
33011;DHT22;19370;48.562;9.196;2022-11-11T04:32:14;4.60;99.90
33011;DHT22;19370;48.562;9.196;2022-11-11T04:35:01;4.60;99.90
33011;DHT22;19370;48.562;9.196;2022-11-11T04:37:30;4.60;99.90
33011;DHT22;19370;48.562;9.196;2022-11-11T04:39:56;4.50;99.90
33011;DHT22;19370;48.562;9.196;2022-11-11T04:42:41;4.50;99.90
33011;DHT22;19370;48.562;9.196;2022-11-11T04:45:09;4.50;99.90
33011;DHT22;19370;48.562;9.196;2022-11-11T04:47:57;4.50;99.90
33011;DHT22;19370;48.562;9.196;2022-11-11T04:50:25;4.40;99.90
33011;DHT22;19370;48.562;9.196;2022-11-11T04:52:52;4.30;99.90
33011;DHT22;19370;48.562;9.196;2022-11-11T04:55:17;4.30;99.90
33011;DHT22;19370;48.562;9.196;2022-11-11T04:58:02;4.30;99.90
33011;DHT22;19370;48.562;9.196;2022-11-11T05:00:28;4.30;99.90
33011;DHT22;19370;48.562;9.196;2022-11-11T05:02:54;4.40;99.90
33011;DHT22;19370;48.562;9.196;2022-11-11T05:05:39;4.40;99.90
33011;DHT22;19370;48.562;9.196;2022-11-11T05:08:23;4.30;99.90
33011;DHT22;19370;48.562;9.196;2022-11-11T05:11:07;4.40;99.90
33011;DHT22;19370;48.562;9.196;2022-11-11T05:13:33;4.40;99.90
33011;DHT22;19370;48.562;9.196;2022-11-11T05:16:23;4.70;99.90
33011;DHT22;19370;48.562;9.196;2022-11-11T05:19:10;4.80;99.90
33011;DHT22;19370;48.562;9.196;2022-11-11T05:21:57;4.80;99.90
33011;DHT22;19370;48.562;9.196;2022-11-11T05:24:25;4.80;99.90
33011;DHT22;19370;48.562;9.196;2022-11-11T05:27:09;4.70;99.90
33011;DHT22;19370;48.562;9.196;2022-11-11T05:29:34;4.60;99.90
33011;DHT22;19370;48.562;9.196;2022-11-11T05:32:01;4.50;99.90
33011;DHT22;19370;48.562;9.196;2022-11-11T05:34:26;4.60;99.90
33011;DHT22;19370;48.562;9.196;2022-11-11T05:36:52;4.50;99.90
33011;DHT22;19370;48.562;9.196;2022-11-11T05:39:18;4.60;99.90
33011;DHT22;19370;48.562;9.196;2022-11-11T05:41:43;4.50;99.90
33011;DHT22;19370;48.562;9.196;2022-11-11T05:44:09;4.50;99.90
33011;DHT22;19370;48.562;9.196;2022-11-11T05:46:35;4.40;99.90
33011;DHT22;19370;48.562;9.196;2022-11-11T05:49:00;4.30;99.90
33011;DHT22;19370;48.562;9.196;2022-11-11T05:51:42;4.30;99.90
33011;DHT22;19370;48.562;9.196;2022-11-11T05:54:08;4.20;99.90
33011;DHT22;19370;48.562;9.196;2022-11-11T05:56:34;4.10;99.90
33011;DHT22;19370;48.562;9.196;2022-11-11T05:59:00;4.20;99.90
33011;DHT22;19370;48.562;9.196;2022-11-11T06:01:25;4.20;99.90
33011;DHT22;19370;48.562;9.196;2022-11-11T06:03:52;4.20;99.90
33011;DHT22;19370;48.562;9.196;2022-11-11T06:06:18;4.20;99.90
33011;DHT22;19370;48.562;9.196;2022-11-11T06:08:43;4.20;99.90
33011;DHT22;19370;48.562;9.196;2022-11-11T06:11:09;4.30;99.90
33011;DHT22;19370;48.562;9.196;2022-11-11T06:13:35;4.30;99.90
33011;DHT22;19370;48.562;9.196;2022-11-11T06:16:02;4.30;99.90
33011;DHT22;19370;48.562;9.196;2022-11-11T06:18:28;4.20;99.90
33011;DHT22;19370;48.562;9.196;2022-11-11T06:20:58;4.30;99.90
33011;DHT22;19370;48.562;9.196;2022-11-11T06:23:24;4.10;99.90
33011;DHT22;19370;48.562;9.196;2022-11-11T06:25:51;4.10;99.90
33011;DHT22;19370;48.562;9.196;2022-11-11T06:28:36;4.10;99.90
33011;DHT22;19370;48.562;9.196;2022-11-11T06:31:02;4.00;99.90
33011;DHT22;19370;48.562;9.196;2022-11-11T06:33:29;4.10;99.90
33011;DHT22;19370;48.562;9.196;2022-11-11T06:35:55;4.10;99.90
33011;DHT22;19370;48.562;9.196;2022-11-11T06:38:21;4.10;99.90
33011;DHT22;19370;48.562;9.196;2022-11-11T06:40:47;4.20;99.90
33011;DHT22;19370;48.562;9.196;2022-11-11T06:43:13;4.30;99.90
33011;DHT22;19370;48.562;9.196;2022-11-11T06:45:39;4.40;99.90
33011;DHT22;19370;48.562;9.196;2022-11-11T06:48:05;4.40;99.90
33011;DHT22;19370;48.562;9.196;2022-11-11T06:50:32;4.20;99.90
33011;DHT22;19370;48.562;9.196;2022-11-11T06:53:05;4.30;99.90
33011;DHT22;19370;48.562;9.196;2022-11-11T06:55:32;4.20;99.90
33011;DHT22;19370;48.562;9.196;2022-11-11T06:58:10;4.20;99.90
33011;DHT22;19370;48.562;9.196;2022-11-11T07:00:37;4.30;99.90
33011;DHT22;19370;48.562;9.196;2022-11-11T07:03:05;4.20;99.90
33011;DHT22;19370;48.562;9.196;2022-11-11T07:05:34;4.20;99.90
33011;DHT22;19370;48.562;9.196;2022-11-11T07:08:12;4.30;99.90
33011;DHT22;19370;48.562;9.196;2022-11-11T07:10:41;4.40;99.90
33011;DHT22;19370;48.562;9.196;2022-11-11T07:13:08;4.40;99.90
33011;DHT22;19370;48.562;9.196;2022-11-11T07:15:34;4.50;99.90
33011;DHT22;19370;48.562;9.196;2022-11-11T07:18:01;4.50;99.90
33011;DHT22;19370;48.562;9.196;2022-11-11T07:20:27;4.40;99.90
33011;DHT22;19370;48.562;9.196;2022-11-11T07:22:52;4.50;99.90
33011;DHT22;19370;48.562;9.196;2022-11-11T07:25:18;4.50;99.90
33011;DHT22;19370;48.562;9.196;2022-11-11T07:27:44;4.50;99.90
33011;DHT22;19370;48.562;9.196;2022-11-11T07:30:10;4.50;99.90
33011;DHT22;19370;48.562;9.196;2022-11-11T07:32:42;4.60;99.90
33011;DHT22;19370;48.562;9.196;2022-11-11T07:35:09;4.50;99.90
33011;DHT22;19370;48.562;9.196;2022-11-11T07:37:36;4.50;99.90
33011;DHT22;19370;48.562;9.196;2022-11-11T07:40:05;4.70;99.90
33011;DHT22;19370;48.562;9.196;2022-11-11T07:42:31;4.70;99.90
33011;DHT22;19370;48.562;9.196;2022-11-11T07:44:57;4.80;99.90
33011;DHT22;19370;48.562;9.196;2022-11-11T07:47:22;4.70;99.90
33011;DHT22;19370;48.562;9.196;2022-11-11T07:49:48;4.70;99.90
33011;DHT22;19370;48.562;9.196;2022-11-11T07:52:14;4.80;99.90
33011;DHT22;19370;48.562;9.196;2022-11-11T07:54:40;4.60;99.90
33011;DHT22;19370;48.562;9.196;2022-11-11T07:57:05;4.60;99.90
33011;DHT22;19370;48.562;9.196;2022-11-11T07:59:31;4.70;99.90
33011;DHT22;19370;48.562;9.196;2022-11-11T08:01:57;4.80;99.90
33011;DHT22;19370;48.562;9.196;2022-11-11T08:04:23;4.90;99.90
33011;DHT22;19370;48.562;9.196;2022-11-11T08:06:49;5.00;99.90
33011;DHT22;19370;48.562;9.196;2022-11-11T08:09:14;5.10;99.90
33011;DHT22;19370;48.562;9.196;2022-11-11T08:11:40;5.20;99.90
33011;DHT22;19370;48.562;9.196;2022-11-11T08:14:24;5.20;99.90
33011;DHT22;19370;48.562;9.196;2022-11-11T08:16:51;5.40;99.90
33011;DHT22;19370;48.562;9.196;2022-11-11T08:19:17;5.40;99.90
33011;DHT22;19370;48.562;9.196;2022-11-11T08:21:43;5.40;99.90
33011;DHT22;19370;48.562;9.196;2022-11-11T08:24:09;5.50;99.90
33011;DHT22;19370;48.562;9.196;2022-11-11T08:26:35;5.60;99.90
33011;DHT22;19370;48.562;9.196;2022-11-11T08:29:01;5.60;99.90
33011;DHT22;19370;48.562;9.196;2022-11-11T08:31:26;5.90;99.90
33011;DHT22;19370;48.562;9.196;2022-11-11T08:33:55;6.00;99.90
33011;DHT22;19370;48.562;9.196;2022-11-11T08:36:21;6.10;99.90
33011;DHT22;19370;48.562;9.196;2022-11-11T08:38:48;6.20;99.90
33011;DHT22;19370;48.562;9.196;2022-11-11T08:41:13;6.20;99.90
33011;DHT22;19370;48.562;9.196;2022-11-11T08:43:39;6.20;99.90
33011;DHT22;19370;48.562;9.196;2022-11-11T08:46:05;6.30;99.90
33011;DHT22;19370;48.562;9.196;2022-11-11T08:48:31;6.20;99.90
33011;DHT22;19370;48.562;9.196;2022-11-11T08:51:00;6.20;99.90
33011;DHT22;19370;48.562;9.196;2022-11-11T08:53:27;6.30;99.90
33011;DHT22;19370;48.562;9.196;2022-11-11T08:55:53;6.50;99.90
33011;DHT22;19370;48.562;9.196;2022-11-11T08:58:19;6.50;99.90
33011;DHT22;19370;48.562;9.196;2022-11-11T09:00:45;6.30;99.90
33011;DHT22;19370;48.562;9.196;2022-11-11T09:03:11;6.40;99.90
33011;DHT22;19370;48.562;9.196;2022-11-11T09:05:37;6.60;99.90
33011;DHT22;19370;48.562;9.196;2022-11-11T09:08:05;6.60;99.90
33011;DHT22;19370;48.562;9.196;2022-11-11T09:10:34;6.70;99.90
33011;DHT22;19370;48.562;9.196;2022-11-11T09:13:03;6.90;99.90
33011;DHT22;19370;48.562;9.196;2022-11-11T09:15:30;6.90;99.90
33011;DHT22;19370;48.562;9.196;2022-11-11T09:17:56;6.80;99.90
33011;DHT22;19370;48.562;9.196;2022-11-11T09:20:22;6.90;99.90
33011;DHT22;19370;48.562;9.196;2022-11-11T09:22:48;7.00;99.90
33011;DHT22;19370;48.562;9.196;2022-11-11T09:25:15;7.10;99.90
33011;DHT22;19370;48.562;9.196;2022-11-11T09:27:41;7.30;99.90
33011;DHT22;19370;48.562;9.196;2022-11-11T09:30:09;7.30;99.90
33011;DHT22;19370;48.562;9.196;2022-11-11T09:32:35;7.30;99.90
33011;DHT22;19370;48.562;9.196;2022-11-11T09:35:02;7.30;99.90
33011;DHT22;19370;48.562;9.196;2022-11-11T09:37:28;7.20;99.90
33011;DHT22;19370;48.562;9.196;2022-11-11T09:39:54;7.30;99.90
33011;DHT22;19370;48.562;9.196;2022-11-11T09:42:41;7.60;99.90
33011;DHT22;19370;48.562;9.196;2022-11-11T09:51:17;8.40;99.90
33011;DHT22;19370;48.562;9.196;2022-11-11T09:53:51;8.40;99.90
33011;DHT22;19370;48.562;9.196;2022-11-11T09:56:19;8.50;99.90
33011;DHT22;19370;48.562;9.196;2022-11-11T10:01:47;8.90;99.90
33011;DHT22;19370;48.562;9.196;2022-11-11T10:07:13;9.20;99.90
33011;DHT22;19370;48.562;9.196;2022-11-11T10:09:53;9.20;99.90
33011;DHT22;19370;48.562;9.196;2022-11-11T10:12:21;9.30;99.90
33011;DHT22;19370;48.562;9.196;2022-11-11T10:14:48;9.40;99.90
33011;DHT22;19370;48.562;9.196;2022-11-11T10:20:10;9.80;99.90
33011;DHT22;19370;48.562;9.196;2022-11-11T10:22:41;9.90;99.90
33011;DHT22;19370;48.562;9.196;2022-11-11T10:25:15;10.10;99.90
33011;DHT22;19370;48.562;9.196;2022-11-11T10:27:44;10.50;99.90
33011;DHT22;19370;48.562;9.196;2022-11-11T10:30:31;10.80;99.90
33011;DHT22;19370;48.562;9.196;2022-11-11T10:33:17;11.00;99.90
33011;DHT22;19370;48.562;9.196;2022-11-11T10:35:44;11.00;99.90
33011;DHT22;19370;48.562;9.196;2022-11-11T10:41:20;11.80;99.90
33011;DHT22;19370;48.562;9.196;2022-11-11T10:43:48;12.20;99.90
33011;DHT22;19370;48.562;9.196;2022-11-11T10:46:37;12.50;99.90
33011;DHT22;19370;48.562;9.196;2022-11-11T10:49:15;12.60;99.90
33011;DHT22;19370;48.562;9.196;2022-11-11T10:51:50;12.80;99.90
33011;DHT22;19370;48.562;9.196;2022-11-11T10:54:22;12.60;99.90
33011;DHT22;19370;48.562;9.196;2022-11-11T10:59:36;13.40;99.90
33011;DHT22;19370;48.562;9.196;2022-11-11T11:02:29;13.70;99.90
33011;DHT22;19370;48.562;9.196;2022-11-11T11:05:21;13.90;99.90
33011;DHT22;19370;48.562;9.196;2022-11-11T11:08:06;14.00;99.90
33011;DHT22;19370;48.562;9.196;2022-11-11T11:11:08;14.50;99.90
33011;DHT22;19370;48.562;9.196;2022-11-11T11:16:17;15.00;99.90
33011;DHT22;19370;48.562;9.196;2022-11-11T11:18:44;15.30;99.90
33011;DHT22;19370;48.562;9.196;2022-11-11T11:21:47;15.30;99.90
33011;DHT22;19370;48.562;9.196;2022-11-11T11:24:29;15.40;99.90
33011;DHT22;19370;48.562;9.196;2022-11-11T11:26:58;15.30;99.90
33011;DHT22;19370;48.562;9.196;2022-11-11T11:31:55;14.90;99.90
33011;DHT22;19370;48.562;9.196;2022-11-11T11:35:04;14.80;99.90
33011;DHT22;19370;48.562;9.196;2022-11-11T11:37:24;14.60;99.90
33011;DHT22;19370;48.562;9.196;2022-11-11T11:40:04;14.40;99.90
33011;DHT22;19370;48.562;9.196;2022-11-11T11:42:34;14.40;99.90
33011;DHT22;19370;48.562;9.196;2022-11-11T11:45:26;14.20;99.90
33011;DHT22;19370;48.562;9.196;2022-11-11T11:51:23;14.00;99.90
33011;DHT22;19370;48.562;9.196;2022-11-11T11:56:28;14.50;99.90
33011;DHT22;19370;48.562;9.196;2022-11-11T12:01:34;14.60;99.90
33011;DHT22;19370;48.562;9.196;2022-11-11T12:07:05;15.10;99.90
33011;DHT22;19370;48.562;9.196;2022-11-11T12:12:39;16.10;99.90
33011;DHT22;19370;48.562;9.196;2022-11-11T12:18:22;16.90;99.90
33011;DHT22;19370;48.562;9.196;2022-11-11T12:32:02;16.50;99.90
33011;DHT22;19370;48.562;9.196;2022-11-11T12:48:55;15.30;99.90
33011;DHT22;19370;48.562;9.196;2022-11-11T12:54:33;15.30;99.90
33011;DHT22;19370;48.562;9.196;2022-11-11T13:14:33;13.80;99.90
33011;DHT22;19370;48.562;9.196;2022-11-11T13:17:11;13.70;99.90
33011;DHT22;19370;48.562;9.196;2022-11-11T13:19:42;13.70;99.90
33011;DHT22;19370;48.562;9.196;2022-11-11T13:24:51;13.50;99.90
33011;DHT22;19370;48.562;9.196;2022-11-11T13:32:18;13.40;99.90
33011;DHT22;19370;48.562;9.196;2022-11-11T13:34:48;13.40;99.90
33011;DHT22;19370;48.562;9.196;2022-11-11T13:37:31;13.60;99.90
33011;DHT22;19370;48.562;9.196;2022-11-11T13:40:07;13.80;99.90
33011;DHT22;19370;48.562;9.196;2022-11-11T13:42:49;13.90;99.90
33011;DHT22;19370;48.562;9.196;2022-11-11T13:45:31;14.10;99.90
33011;DHT22;19370;48.562;9.196;2022-11-11T13:48:01;14.40;99.90
33011;DHT22;19370;48.562;9.196;2022-11-11T13:50:35;14.30;99.90
33011;DHT22;19370;48.562;9.196;2022-11-11T13:53:11;14.40;99.90
33011;DHT22;19370;48.562;9.196;2022-11-11T13:55:43;14.30;99.90
33011;DHT22;19370;48.562;9.196;2022-11-11T13:58:27;14.20;99.90
33011;DHT22;19370;48.562;9.196;2022-11-11T14:01:04;14.10;99.90
33011;DHT22;19370;48.562;9.196;2022-11-11T14:03:56;14.20;99.90
33011;DHT22;19370;48.562;9.196;2022-11-11T14:22:00;14.50;99.90
33011;DHT22;19370;48.562;9.196;2022-11-11T14:24:37;14.50;99.90
33011;DHT22;19370;48.562;9.196;2022-11-11T14:27:15;14.20;99.90
33011;DHT22;19370;48.562;9.196;2022-11-11T14:29:50;14.50;99.90
33011;DHT22;19370;48.562;9.196;2022-11-11T14:35:25;14.20;99.90
33011;DHT22;19370;48.562;9.196;2022-11-11T14:37:59;14.40;99.90
33011;DHT22;19370;48.562;9.196;2022-11-11T14:40:30;14.20;99.90
33011;DHT22;19370;48.562;9.196;2022-11-11T14:42:57;13.90;99.90
33011;DHT22;19370;48.562;9.196;2022-11-11T14:47:56;14.20;99.90
33011;DHT22;19370;48.562;9.196;2022-11-11T14:53:17;13.90;99.90
33011;DHT22;19370;48.562;9.196;2022-11-11T14:55:50;13.70;99.90
33011;DHT22;19370;48.562;9.196;2022-11-11T14:58:19;13.30;99.90
33011;DHT22;19370;48.562;9.196;2022-11-11T15:01:09;13.10;99.90
33011;DHT22;19370;48.562;9.196;2022-11-11T15:03:45;12.90;99.90
33011;DHT22;19370;48.562;9.196;2022-11-11T15:06:27;12.70;99.90
33011;DHT22;19370;48.562;9.196;2022-11-11T15:09:28;12.50;99.90
33011;DHT22;19370;48.562;9.196;2022-11-11T15:15:15;12.00;99.90
33011;DHT22;19370;48.562;9.196;2022-11-11T15:32:18;10.80;99.90
33011;DHT22;19370;48.562;9.196;2022-11-11T15:37:50;10.60;99.90
33011;DHT22;19370;48.562;9.196;2022-11-11T15:40:30;10.30;99.90
33011;DHT22;19370;48.562;9.196;2022-11-11T15:42:58;10.20;99.90
33011;DHT22;19370;48.562;9.196;2022-11-11T15:45:32;10.00;99.90
33011;DHT22;19370;48.562;9.196;2022-11-11T15:47:58;9.90;99.90
33011;DHT22;19370;48.562;9.196;2022-11-11T15:52:56;9.70;99.90
33011;DHT22;19370;48.562;9.196;2022-11-11T15:55:28;9.60;99.90
33011;DHT22;19370;48.562;9.196;2022-11-11T15:58:06;9.50;99.90
33011;DHT22;19370;48.562;9.196;2022-11-11T16:00:32;9.40;99.90
33011;DHT22;19370;48.562;9.196;2022-11-11T16:02:58;9.30;99.90
33011;DHT22;19370;48.562;9.196;2022-11-11T16:05:25;9.30;99.90
33011;DHT22;19370;48.562;9.196;2022-11-11T16:07:55;9.20;99.90
33011;DHT22;19370;48.562;9.196;2022-11-11T16:10:31;9.10;99.90
33011;DHT22;19370;48.562;9.196;2022-11-11T16:15:47;8.90;99.90
33011;DHT22;19370;48.562;9.196;2022-11-11T16:18:21;8.90;99.90
33011;DHT22;19370;48.562;9.196;2022-11-11T16:21:17;8.80;99.90
33011;DHT22;19370;48.562;9.196;2022-11-11T16:23:44;8.80;99.90
33011;DHT22;19370;48.562;9.196;2022-11-11T16:26:11;8.70;99.90
33011;DHT22;19370;48.562;9.196;2022-11-11T16:28:45;8.70;99.90
33011;DHT22;19370;48.562;9.196;2022-11-11T16:33:54;8.60;99.90
33011;DHT22;19370;48.562;9.196;2022-11-11T16:36:20;8.60;99.90
33011;DHT22;19370;48.562;9.196;2022-11-11T16:38:46;8.60;99.90
33011;DHT22;19370;48.562;9.196;2022-11-11T16:41:42;8.60;99.90
33011;DHT22;19370;48.562;9.196;2022-11-11T16:46:53;8.50;99.90
33011;DHT22;19370;48.562;9.196;2022-11-11T16:49:35;8.50;99.90
33011;DHT22;19370;48.562;9.196;2022-11-11T16:52:23;8.50;99.90
33011;DHT22;19370;48.562;9.196;2022-11-11T16:54:55;8.40;99.90
33011;DHT22;19370;48.562;9.196;2022-11-11T16:57:31;8.40;99.90
33011;DHT22;19370;48.562;9.196;2022-11-11T17:00:03;8.30;99.90
33011;DHT22;19370;48.562;9.196;2022-11-11T17:02:30;8.30;99.90
33011;DHT22;19370;48.562;9.196;2022-11-11T17:04:57;8.30;99.90
33011;DHT22;19370;48.562;9.196;2022-11-11T17:10:15;8.20;99.90
33011;DHT22;19370;48.562;9.196;2022-11-11T17:12:43;8.20;99.90
33011;DHT22;19370;48.562;9.196;2022-11-11T17:15:13;8.20;99.90
33011;DHT22;19370;48.562;9.196;2022-11-11T17:17:42;8.10;99.90
33011;DHT22;19370;48.562;9.196;2022-11-11T17:20:20;8.10;99.90
33011;DHT22;19370;48.562;9.196;2022-11-11T17:25:13;8.00;99.90
33011;DHT22;19370;48.562;9.196;2022-11-11T17:27:38;8.00;99.90
33011;DHT22;19370;48.562;9.196;2022-11-11T17:30:05;8.00;99.90
33011;DHT22;19370;48.562;9.196;2022-11-11T17:32:31;7.90;99.90
33011;DHT22;19370;48.562;9.196;2022-11-11T17:34:57;7.90;99.90
33011;DHT22;19370;48.562;9.196;2022-11-11T17:37:23;7.80;99.90
33011;DHT22;19370;48.562;9.196;2022-11-11T17:39:49;7.80;99.90
33011;DHT22;19370;48.562;9.196;2022-11-11T17:42:15;7.80;99.90
33011;DHT22;19370;48.562;9.196;2022-11-11T17:44:41;7.70;99.90
33011;DHT22;19370;48.562;9.196;2022-11-11T17:47:06;7.70;99.90
33011;DHT22;19370;48.562;9.196;2022-11-11T17:49:32;7.60;99.90
33011;DHT22;19370;48.562;9.196;2022-11-11T17:51:58;7.70;99.90
33011;DHT22;19370;48.562;9.196;2022-11-11T17:54:24;7.60;99.90
33011;DHT22;19370;48.562;9.196;2022-11-11T17:56:52;7.60;99.90
33011;DHT22;19370;48.562;9.196;2022-11-11T17:59:18;7.60;99.90
33011;DHT22;19370;48.562;9.196;2022-11-11T18:01:44;7.60;99.90
33011;DHT22;19370;48.562;9.196;2022-11-11T18:04:10;7.60;99.90
33011;DHT22;19370;48.562;9.196;2022-11-11T18:06:36;7.60;99.90
33011;DHT22;19370;48.562;9.196;2022-11-11T18:09:01;7.60;99.90
33011;DHT22;19370;48.562;9.196;2022-11-11T18:11:27;7.60;99.90
33011;DHT22;19370;48.562;9.196;2022-11-11T18:13:53;7.60;99.90
33011;DHT22;19370;48.562;9.196;2022-11-11T18:16:20;7.70;99.90
33011;DHT22;19370;48.562;9.196;2022-11-11T18:18:46;7.70;99.90
33011;DHT22;19370;48.562;9.196;2022-11-11T18:21:12;7.60;99.90
33011;DHT22;19370;48.562;9.196;2022-11-11T18:23:39;7.80;99.90
33011;DHT22;19370;48.562;9.196;2022-11-11T18:26:06;7.90;99.90
33011;DHT22;19370;48.562;9.196;2022-11-11T18:28:36;8.00;99.90
33011;DHT22;19370;48.562;9.196;2022-11-11T18:31:05;8.10;99.90
33011;DHT22;19370;48.562;9.196;2022-11-11T18:33:31;8.20;99.90
33011;DHT22;19370;48.562;9.196;2022-11-11T18:36:08;8.20;99.90
33011;DHT22;19370;48.562;9.196;2022-11-11T18:38:35;8.30;99.90
33011;DHT22;19370;48.562;9.196;2022-11-11T18:41:07;8.30;99.90
33011;DHT22;19370;48.562;9.196;2022-11-11T18:43:37;8.40;99.90
33011;DHT22;19370;48.562;9.196;2022-11-11T18:46:17;8.30;99.90
33011;DHT22;19370;48.562;9.196;2022-11-11T18:48:43;8.30;99.90
33011;DHT22;19370;48.562;9.196;2022-11-11T18:51:12;8.30;99.90
33011;DHT22;19370;48.562;9.196;2022-11-11T18:53:39;8.40;99.90
33011;DHT22;19370;48.562;9.196;2022-11-11T18:56:08;8.40;99.90
33011;DHT22;19370;48.562;9.196;2022-11-11T18:58:35;8.40;99.90